createdAt,value
2023-01-01T00:00:41.189Z,943.28
2023-01-01T00:01:41.169Z,942.35
2023-01-01T00:02:41.140Z,941.27
2023-01-01T00:03:41.158Z,940.37
2023-01-01T00:04:41.173Z,939.02
2023-01-01T00:05:41.154Z,938.53
2023-01-01T00:06:41.172Z,937.48
2023-01-01T00:07:41.156Z,936.99
2023-01-01T00:08:41.153Z,936.09
2023-01-01T00:09:41.176Z,935.64
2023-01-01T00:10:41.160Z,933.99
2023-01-01T00:11:41.178Z,933.42
2023-01-01T00:12:41.174Z,932.04
2023-01-01T00:13:41.185Z,931.06
2023-01-01T00:14:41.207Z,929.98
2023-01-01T00:15:41.164Z,929.43
2023-01-01T00:16:41.304Z,928.06
2023-01-01T00:17:41.168Z,927.4
2023-01-01T00:18:41.163Z,926.89
2023-01-01T00:19:41.187Z,925.93
2023-01-01T00:20:41.184Z,924.86
2023-01-01T00:21:41.175Z,924.78
2023-01-01T00:22:54.320Z,924.04
2023-01-01T00:23:41.176Z,923.47
2023-01-01T00:24:41.208Z,922.89
2023-01-01T00:25:41.185Z,922.04
2023-01-01T00:26:41.182Z,921.73
2023-01-01T00:27:41.176Z,921.12
2023-01-01T00:28:41.184Z,920.08
2023-01-01T00:29:41.227Z,919.74
2023-01-01T00:30:41.184Z,918.56
2023-01-01T00:31:41.198Z,918.01
2023-01-01T00:32:41.202Z,917.2
2023-01-01T00:33:41.188Z,916.9
2023-01-01T00:34:41.225Z,916.28
2023-01-01T00:35:41.209Z,915.49
2023-01-01T00:36:41.199Z,914.7
2023-01-01T00:37:46.472Z,913.69
2023-01-01T00:38:41.217Z,912.93
2023-01-01T00:39:41.220Z,912.41
2023-01-01T00:40:41.210Z,911.87
2023-01-01T00:41:41.200Z,910.98
2023-01-01T00:42:41.229Z,910.62
2023-01-01T00:43:44.007Z,910.25
2023-01-01T00:44:41.238Z,909.48
2023-01-01T00:45:41.273Z,909.1
2023-01-01T00:46:41.214Z,907.65
2023-01-01T00:47:41.235Z,907.15
2023-01-01T00:48:41.227Z,906.54
2023-01-01T00:49:41.243Z,905.89
2023-01-01T00:50:41.218Z,905.19
2023-01-01T00:51:41.220Z,904.27
2023-01-01T00:52:41.221Z,903.79
2023-01-01T00:53:41.225Z,903.58
2023-01-01T00:54:43.104Z,903.06
2023-01-01T00:55:41.234Z,902.48
2023-01-01T00:56:41.242Z,902.09
2023-01-01T00:57:41.234Z,901.24
2023-01-01T00:58:41.244Z,900.82
2023-01-01T00:59:41.245Z,900.14
2023-01-01T01:00:41.233Z,899.81
2023-01-01T01:01:41.362Z,898.93
2023-01-01T01:02:41.569Z,898.09
2023-01-01T01:03:41.236Z,897.43
2023-01-01T01:04:41.249Z,897.2
2023-01-01T01:05:44.359Z,896.44
2023-01-01T01:06:41.247Z,895.79
2023-01-01T01:07:41.251Z,895.32
2023-01-01T01:08:41.250Z,894.97
2023-01-01T01:09:41.254Z,893.68
2023-01-01T01:10:41.285Z,893.03
2023-01-01T01:11:41.248Z,892.26
2023-01-01T01:12:41.259Z,891.93
2023-01-01T01:13:41.253Z,891.15
2023-01-01T01:14:41.275Z,890.79
2023-01-01T01:15:41.260Z,890.05
2023-01-01T01:16:44.406Z,890.12
2023-01-01T01:17:41.267Z,889.85
2023-01-01T01:18:41.257Z,890.24
2023-01-01T01:19:41.263Z,890.11
2023-01-01T01:20:41.266Z,890.66
2023-01-01T01:21:41.273Z,890.72
2023-01-01T01:22:41.276Z,890.88
2023-01-01T01:23:41.266Z,890.33
2023-01-01T01:24:41.285Z,890.04
2023-01-01T01:25:41.274Z,890.04
2023-01-01T01:26:41.303Z,890.15
2023-01-01T01:27:41.292Z,890.44
2023-01-01T01:28:45.506Z,890.23
2023-01-01T01:29:41.282Z,890.62
2023-01-01T01:30:41.319Z,890.81
2023-01-01T01:31:41.287Z,890.45
2023-01-01T01:32:41.281Z,890.27
2023-01-01T01:33:41.286Z,890.01
2023-01-01T01:34:41.294Z,889.28
2023-01-01T01:35:41.286Z,888.94
2023-01-01T01:36:41.292Z,888.68
2023-01-01T01:37:41.286Z,888.08
2023-01-01T01:38:41.297Z,887.15
2023-01-01T01:39:41.300Z,886.78
2023-01-01T01:40:41.297Z,886.31
2023-01-01T01:41:41.354Z,885.2
2023-01-01T01:42:41.327Z,885.26
2023-01-01T01:43:41.295Z,884.73
2023-01-01T01:44:41.304Z,884.61
2023-01-01T01:45:41.331Z,883.78
2023-01-01T01:46:41.316Z,884.11
2023-01-01T01:47:41.311Z,883.84
2023-01-01T01:48:41.310Z,883.74
2023-01-01T01:49:41.304Z,883.24
2023-01-01T01:50:41.305Z,882.83
2023-01-01T01:51:41.314Z,882.7
2023-01-01T01:52:41.318Z,882.66
2023-01-01T01:53:41.309Z,882.25
2023-01-01T01:54:41.320Z,882
2023-01-01T01:55:41.325Z,881.45
2023-01-01T01:56:41.318Z,881.75
2023-01-01T01:57:41.324Z,881.77
2023-01-01T01:58:41.345Z,881.62
2023-01-01T01:59:41.328Z,881.76
2023-01-01T02:00:41.324Z,881.33
2023-01-01T02:01:41.471Z,881.32
2023-01-01T02:02:41.527Z,881.3
2023-01-01T02:03:41.329Z,881.71
2023-01-01T02:04:41.336Z,881.31
2023-01-01T02:05:41.335Z,881
2023-01-01T02:06:41.336Z,880.52
2023-01-01T02:07:41.332Z,879.99
2023-01-01T02:08:41.341Z,879.98
2023-01-01T02:09:41.337Z,879.04
2023-01-01T02:10:41.337Z,878.69
2023-01-01T02:11:41.342Z,878.01
2023-01-01T02:12:41.358Z,876.8
2023-01-01T02:13:41.341Z,876.61
2023-01-01T02:14:41.376Z,875.37
2023-01-01T02:15:41.374Z,875.2
2023-01-01T02:16:41.358Z,875.21
2023-01-01T02:17:41.355Z,875.12
2023-01-01T02:18:41.349Z,875.27
2023-01-01T02:19:41.356Z,874.25
2023-01-01T02:20:41.359Z,874.11
2023-01-01T02:21:41.360Z,873.71
2023-01-01T02:22:41.359Z,873.42
2023-01-01T02:23:41.357Z,873.25
2023-01-01T02:24:41.372Z,873.03
2023-01-01T02:25:41.362Z,872.81
2023-01-01T02:26:41.365Z,872.31
2023-01-01T02:27:41.365Z,872.18
2023-01-01T02:28:41.375Z,871.95
2023-01-01T02:29:41.364Z,871.28
2023-01-01T02:30:41.514Z,871.06
2023-01-01T02:31:41.537Z,870.56
2023-01-01T02:32:41.385Z,869.6
2023-01-01T02:33:41.381Z,869.37
2023-01-01T02:34:41.392Z,868.26
2023-01-01T02:35:41.377Z,868.15
2023-01-01T02:36:41.393Z,868.13
2023-01-01T02:37:41.383Z,868.19
2023-01-01T02:38:41.384Z,867.61
2023-01-01T02:39:41.381Z,867.88
2023-01-01T02:40:41.388Z,868.04
2023-01-01T02:41:41.394Z,867.92
2023-01-01T02:42:41.390Z,868.21
2023-01-01T02:43:41.398Z,868.5
2023-01-01T02:44:41.400Z,868.21
2023-01-01T02:45:41.400Z,868.93
2023-01-01T02:46:41.440Z,868.32
2023-01-01T02:47:41.402Z,868.23
2023-01-01T02:48:41.455Z,867.72
2023-01-01T02:49:41.405Z,866.59
2023-01-01T02:50:41.400Z,865.47
2023-01-01T02:51:41.412Z,865.15
2023-01-01T02:52:41.405Z,864.65
2023-01-01T02:53:41.418Z,863.81
2023-01-01T02:54:41.404Z,863.09
2023-01-01T02:55:41.406Z,862.37
2023-01-01T02:56:41.421Z,862.26
2023-01-01T02:57:41.442Z,861.98
2023-01-01T02:58:41.437Z,861.33
2023-01-01T02:59:41.428Z,860.57
2023-01-01T03:00:41.457Z,859.82
2023-01-01T03:01:41.533Z,859.7
2023-01-01T03:02:45.176Z,859.16
2023-01-01T03:03:41.556Z,859
2023-01-01T03:04:41.426Z,858.21
2023-01-01T03:05:41.461Z,858.05
2023-01-01T03:06:41.438Z,857.86
2023-01-01T03:07:41.429Z,857.93
2023-01-01T03:08:41.428Z,857.53
2023-01-01T03:09:41.445Z,857.31
2023-01-01T03:10:42.157Z,856.33
2023-01-01T03:11:41.446Z,856.11
2023-01-01T03:12:41.447Z,855.44
2023-01-01T03:13:41.453Z,855.01
2023-01-01T03:14:41.436Z,854.19
2023-01-01T03:15:41.471Z,853.83
2023-01-01T03:16:41.449Z,853.57
2023-01-01T03:17:41.493Z,853.32
2023-01-01T03:18:41.466Z,853.07
2023-01-01T03:19:41.443Z,852.73
2023-01-01T03:20:41.446Z,853.61
2023-01-01T03:21:44.225Z,853.75
2023-01-01T03:23:46.153Z,854
2023-01-01T03:24:41.457Z,853.49
2023-01-01T03:25:41.457Z,853.33
2023-01-01T03:26:41.477Z,852.41
2023-01-01T03:27:41.454Z,851.58
2023-01-01T03:28:41.456Z,850.34
2023-01-01T03:29:41.467Z,849.12
2023-01-01T03:30:41.466Z,848.65
2023-01-01T03:31:41.462Z,847.16
2023-01-01T03:32:44.235Z,846.17
2023-01-01T03:33:41.475Z,844.93
2023-01-01T03:34:41.499Z,844
2023-01-01T03:35:41.495Z,844.02
2023-01-01T03:36:41.468Z,843
2023-01-01T03:37:41.479Z,841.79
2023-01-01T03:38:41.478Z,840.45
2023-01-01T03:39:41.481Z,839.46
2023-01-01T03:40:41.485Z,838.7
2023-01-01T03:41:41.479Z,837.84
2023-01-01T03:42:41.490Z,837.04
2023-01-01T03:43:44.529Z,835.62
2023-01-01T03:44:41.483Z,834.86
2023-01-01T03:45:41.487Z,834.74
2023-01-01T03:46:41.505Z,833.67
2023-01-01T03:47:41.485Z,833.27
2023-01-01T03:48:41.491Z,833.27
2023-01-01T03:49:41.495Z,833.1
2023-01-01T03:50:41.518Z,833.2
2023-01-01T03:51:41.496Z,832.51
2023-01-01T03:52:41.493Z,832.48
2023-01-01T03:53:41.526Z,831.88
2023-01-01T03:54:41.504Z,831.65
2023-01-01T03:55:41.504Z,830.79
2023-01-01T03:56:41.500Z,830.81
2023-01-01T03:57:41.509Z,830.32
2023-01-01T03:58:41.509Z,830.55
2023-01-01T03:59:41.510Z,830.47
2023-01-01T04:00:41.503Z,830.5
2023-01-01T04:01:41.568Z,830.82
2023-01-01T04:02:41.572Z,830.47
2023-01-01T04:03:41.645Z,831.15
2023-01-01T04:04:41.516Z,830.88
2023-01-01T04:05:41.521Z,831.9
2023-01-01T04:06:41.547Z,831.43
2023-01-01T04:08:41.516Z,832.05
2023-01-01T04:09:41.529Z,831.85
2023-01-01T04:10:41.520Z,831.06
2023-01-01T04:11:41.519Z,830.95
2023-01-01T04:12:41.530Z,831.3
2023-01-01T04:13:41.541Z,830.22
2023-01-01T04:14:41.543Z,829.58
2023-01-01T04:15:41.531Z,829.66
2023-01-01T04:16:41.592Z,828.69
2023-01-01T04:17:41.529Z,827.8
2023-01-01T04:18:41.537Z,827.25
2023-01-01T04:19:41.540Z,826.91
2023-01-01T04:20:41.536Z,826.44
2023-01-01T04:21:41.531Z,826.39
2023-01-01T04:22:41.571Z,825.46
2023-01-01T04:23:41.539Z,824.7
2023-01-01T04:24:41.546Z,823.81
2023-01-01T04:25:41.719Z,822.99
2023-01-01T04:26:41.552Z,823.32
2023-01-01T04:27:41.552Z,823.15
2023-01-01T04:28:41.544Z,823.29
2023-01-01T04:29:41.553Z,823.47
2023-01-01T04:31:41.548Z,823.09
2023-01-01T04:32:41.556Z,822.2
2023-01-01T04:33:41.559Z,822.07
2023-01-01T04:34:41.565Z,821.81
2023-01-01T04:35:41.554Z,821.7
2023-01-01T04:36:41.562Z,821.91
2023-01-01T04:37:41.563Z,821.83
2023-01-01T04:38:41.662Z,821.93
2023-01-01T04:39:41.571Z,821.68
2023-01-01T04:40:41.566Z,821.55
2023-01-01T04:41:41.571Z,821.7
2023-01-01T04:42:41.574Z,821.78
2023-01-01T04:43:41.567Z,822.34
2023-01-01T04:44:41.573Z,822.71
2023-01-01T04:45:41.603Z,822.61
2023-01-01T04:46:41.581Z,823.31
2023-01-01T04:47:41.595Z,824.4
2023-01-01T04:48:41.579Z,823.83
2023-01-01T04:49:41.573Z,824.39
2023-01-01T04:50:41.582Z,825.02
2023-01-01T04:51:41.583Z,825.39
2023-01-01T04:52:41.575Z,826.28
2023-01-01T04:53:41.599Z,827.03
2023-01-01T04:54:41.612Z,827.42
2023-01-01T04:55:41.591Z,827.79
2023-01-01T04:56:41.583Z,829.11
2023-01-01T04:57:41.591Z,829.57
2023-01-01T04:58:41.591Z,831.05
2023-01-01T04:59:41.596Z,832.4
2023-01-01T05:00:41.612Z,834.66
2023-01-01T05:01:41.713Z,837.91
2023-01-01T05:02:41.718Z,841.34
2023-01-01T05:03:41.595Z,845.55
2023-01-01T05:04:41.596Z,850.44
2023-01-01T05:05:44.427Z,855.35
2023-01-01T05:06:41.602Z,859.12
2023-01-01T05:07:41.605Z,862.11
2023-01-01T05:08:41.600Z,865.03
2023-01-01T05:09:41.609Z,866.51
2023-01-01T05:10:41.633Z,868.09
2023-01-01T05:11:41.604Z,868.91
2023-01-01T05:12:41.608Z,869.06
2023-01-01T05:13:41.619Z,869.96
2023-01-01T05:14:41.625Z,870.16
2023-01-01T05:15:41.618Z,870.46
2023-01-01T05:16:41.878Z,870.02
2023-01-01T05:17:41.614Z,869.68
2023-01-01T05:18:41.639Z,869.39
2023-01-01T05:19:41.628Z,868.69
2023-01-01T05:20:41.627Z,868.09
2023-01-01T05:21:41.619Z,867.56
2023-01-01T05:22:41.620Z,866.85
2023-01-01T05:23:41.629Z,865.56
2023-01-01T05:24:41.635Z,865.07
2023-01-01T05:25:41.628Z,864.12
2023-01-01T05:26:41.665Z,863.13
2023-01-01T05:27:41.629Z,862.32
2023-01-01T05:28:41.637Z,861.53
2023-01-01T05:29:41.643Z,861.17
2023-01-01T05:30:41.639Z,860.94
2023-01-01T05:31:41.686Z,860.55
2023-01-01T05:32:41.649Z,860.38
2023-01-01T05:33:41.648Z,860.28
2023-01-01T05:34:41.653Z,860.01
2023-01-01T05:35:41.643Z,859.24
2023-01-01T05:36:41.651Z,859.08
2023-01-01T05:37:44.409Z,859.1
2023-01-01T05:38:41.664Z,858.73
2023-01-01T05:39:41.649Z,858.15
2023-01-01T05:40:41.654Z,856.65
2023-01-01T05:41:41.688Z,855.7
2023-01-01T05:42:41.675Z,854.62
2023-01-01T05:43:41.667Z,853.81
2023-01-01T05:44:41.662Z,852.92
2023-01-01T05:45:41.701Z,851.73
2023-01-01T05:46:41.703Z,851.45
2023-01-01T05:47:41.659Z,850.09
2023-01-01T05:48:44.760Z,848.54
2023-01-01T05:49:41.684Z,847.62
2023-01-01T05:50:41.668Z,846.87
2023-01-01T05:51:41.689Z,846.44
2023-01-01T05:52:41.667Z,845.89
2023-01-01T05:53:41.671Z,845.72
2023-01-01T05:54:41.669Z,844.86
2023-01-01T05:55:41.679Z,843.74
2023-01-01T05:56:41.693Z,842.1
2023-01-01T05:57:41.676Z,841.14
2023-01-01T05:58:41.700Z,840.69
2023-01-01T05:59:44.765Z,839.59
2023-01-01T06:00:41.678Z,839.23
2023-01-01T06:01:45.297Z,838.12
2023-01-01T06:02:41.759Z,837.16
2023-01-01T06:03:41.689Z,836.29
2023-01-01T06:04:41.701Z,834.63
2023-01-01T06:05:41.710Z,833.54
2023-01-01T06:06:41.718Z,832.71
2023-01-01T06:07:46.478Z,831.99
2023-01-01T06:08:41.702Z,831.15
2023-01-01T06:09:41.690Z,830.45
2023-01-01T06:10:44.451Z,830.02
2023-01-01T06:11:41.722Z,829.58
2023-01-01T06:12:41.714Z,828.91
2023-01-01T06:13:41.703Z,828.05
2023-01-01T06:14:41.722Z,827.34
2023-01-01T06:15:41.707Z,826.51
2023-01-01T06:16:41.736Z,825.61
2023-01-01T06:17:41.711Z,825.08
2023-01-01T06:18:41.716Z,824.63
2023-01-01T06:19:41.717Z,822.98
2023-01-01T06:20:41.717Z,822.01
2023-01-01T06:21:41.738Z,821.05
2023-01-01T06:22:41.717Z,820.76
2023-01-01T06:23:41.710Z,819.87
2023-01-01T06:24:41.724Z,819.49
2023-01-01T06:25:41.721Z,818.58
2023-01-01T06:26:41.755Z,817.83
2023-01-01T06:27:41.721Z,817.06
2023-01-01T06:28:41.725Z,815.98
2023-01-01T06:29:41.726Z,815.53
2023-01-01T06:30:41.788Z,814.5
2023-01-01T06:31:41.760Z,813.54
2023-01-01T06:32:41.727Z,812.71
2023-01-01T06:33:41.735Z,812.97
2023-01-01T06:34:41.730Z,812.57
2023-01-01T06:35:41.735Z,812.81
2023-01-01T06:36:42.671Z,812.18
2023-01-01T06:37:41.737Z,812.98
2023-01-01T06:38:41.762Z,812.52
2023-01-01T06:39:41.737Z,812.31
2023-01-01T06:40:41.738Z,811.66
2023-01-01T06:41:41.746Z,811.55
2023-01-01T06:42:41.745Z,811.05
2023-01-01T06:43:41.777Z,810.86
2023-01-01T06:44:41.744Z,810.11
2023-01-01T06:45:41.741Z,809.15
2023-01-01T06:46:41.835Z,809.33
2023-01-01T06:47:41.756Z,808.43
2023-01-01T06:48:41.749Z,808.55
2023-01-01T06:49:41.750Z,808.41
2023-01-01T06:50:41.765Z,808.29
2023-01-01T06:51:41.756Z,808.26
2023-01-01T06:52:41.886Z,808.4
2023-01-01T06:53:41.772Z,808.86
2023-01-01T06:54:41.774Z,808.86
2023-01-01T06:55:41.755Z,807.72
2023-01-01T06:56:41.800Z,807.6
2023-01-01T06:57:41.771Z,807.53
2023-01-01T06:58:41.774Z,806.46
2023-01-01T06:59:41.808Z,806.46
2023-01-01T07:00:41.766Z,805.59
2023-01-01T07:01:44.249Z,804.98
2023-01-01T07:02:41.885Z,804.72
2023-01-01T07:03:41.844Z,804.09
2023-01-01T07:04:41.784Z,804.22
2023-01-01T07:05:41.771Z,803.94
2023-01-01T07:06:41.824Z,803.9
2023-01-01T07:07:41.782Z,802.51
2023-01-01T07:08:41.780Z,801.91
2023-01-01T07:09:41.774Z,801.73
2023-01-01T07:10:41.792Z,801.46
2023-01-01T07:11:41.794Z,801.11
2023-01-01T07:12:41.788Z,801
2023-01-01T07:13:41.781Z,801.34
2023-01-01T07:14:41.782Z,800.45
2023-01-01T07:15:41.847Z,799.45
2023-01-01T07:16:41.827Z,799.74
2023-01-01T07:17:41.789Z,798.98
2023-01-01T07:18:41.814Z,798.86
2023-01-01T07:19:41.788Z,799.23
2023-01-01T07:20:41.801Z,799.37
2023-01-01T07:21:41.799Z,799.68
2023-01-01T07:22:41.794Z,799.56
2023-01-01T07:23:41.796Z,799.61
2023-01-01T07:24:41.800Z,799.44
2023-01-01T07:25:41.807Z,799.74
2023-01-01T07:26:41.799Z,799.94
2023-01-01T07:27:41.800Z,800.6
2023-01-01T07:28:41.810Z,801.31
2023-01-01T07:29:41.802Z,801.94
2023-01-01T07:30:41.871Z,802.59
2023-01-01T07:31:41.861Z,803.61
2023-01-01T07:32:41.809Z,804.23
2023-01-01T07:33:41.809Z,805.21
2023-01-01T07:34:44.941Z,807.19
2023-01-01T07:35:41.816Z,808.8
2023-01-01T07:36:41.818Z,810.33
2023-01-01T07:37:41.815Z,811.86
2023-01-01T07:38:41.822Z,813.2
2023-01-01T07:39:41.817Z,814.3
2023-01-01T07:40:41.827Z,815.67
2023-01-01T07:41:41.839Z,817.17
2023-01-01T07:42:41.853Z,818.45
2023-01-01T07:43:41.821Z,819.65
2023-01-01T07:44:41.822Z,820.97
2023-01-01T07:45:41.842Z,822.02
2023-01-01T07:46:41.907Z,822.87
2023-01-01T07:47:41.862Z,823.44
2023-01-01T07:48:41.831Z,824.85
2023-01-01T07:49:41.839Z,826.15
2023-01-01T07:50:41.854Z,827.65
2023-01-01T07:51:41.847Z,828.61
2023-01-01T07:52:41.928Z,830.6
2023-01-01T07:53:41.834Z,832.27
2023-01-01T07:54:41.838Z,833.39
2023-01-01T07:55:41.845Z,835.27
2023-01-01T07:56:41.847Z,836.92
2023-01-01T07:57:41.876Z,838.47
2023-01-01T07:58:41.852Z,840.89
2023-01-01T07:59:41.852Z,842.23
2023-01-01T08:00:41.852Z,843.85
2023-01-01T08:01:41.948Z,845.83
2023-01-01T08:02:41.958Z,847.19
2023-01-01T08:03:41.861Z,849.29
2023-01-01T08:04:44.655Z,851.41
2023-01-01T08:05:41.853Z,852.73
2023-01-01T08:06:41.888Z,854.86
2023-01-01T08:07:41.884Z,857.17
2023-01-01T08:08:41.875Z,859.81
2023-01-01T08:09:41.861Z,861.64
2023-01-01T08:10:41.858Z,864.66
2023-01-01T08:11:41.871Z,866.75
2023-01-01T08:12:41.888Z,869.16
2023-01-01T08:13:41.871Z,871.14
2023-01-01T08:14:41.873Z,873.2
2023-01-01T08:15:44.685Z,875.76
2023-01-01T08:16:41.868Z,877.36
2023-01-01T08:17:46.357Z,879.8
2023-01-01T08:18:41.882Z,882.14
2023-01-01T08:19:41.874Z,883.53
2023-01-01T08:20:41.875Z,886.15
2023-01-01T08:21:41.875Z,887.94
2023-01-01T08:22:41.931Z,890.09
2023-01-01T08:23:41.887Z,891.63
2023-01-01T08:24:41.880Z,893.52
2023-01-01T08:25:41.883Z,896.08
2023-01-01T08:26:44.676Z,897.94
2023-01-01T08:27:41.919Z,899.35
2023-01-01T08:28:41.896Z,900.71
2023-01-01T08:29:41.891Z,902.15
2023-01-01T08:30:41.903Z,904.03
2023-01-01T08:31:41.919Z,905.42
2023-01-01T08:32:41.922Z,907
2023-01-01T08:33:41.894Z,908.95
2023-01-01T08:34:41.904Z,910.56
2023-01-01T08:35:41.910Z,912.73
2023-01-01T08:36:41.899Z,913.98
2023-01-01T08:37:45.384Z,916.28
2023-01-01T08:38:41.914Z,917.36
2023-01-01T08:39:41.911Z,919.39
2023-01-01T08:40:41.917Z,921.11
2023-01-01T08:41:41.913Z,922.35
2023-01-01T08:42:41.917Z,924.42
2023-01-01T08:43:41.925Z,925.26
2023-01-01T08:44:41.923Z,926.83
2023-01-01T08:45:41.922Z,927.5
2023-01-01T08:46:41.957Z,928.88
2023-01-01T08:47:41.927Z,929.76
2023-01-01T08:48:41.925Z,930.95
2023-01-01T08:49:41.930Z,931.98
2023-01-01T08:50:41.933Z,932.6
2023-01-01T08:51:41.931Z,933.91
2023-01-01T08:52:41.930Z,934.61
2023-01-01T08:53:45.489Z,935.75
2023-01-01T08:54:41.938Z,936.89
2023-01-01T08:55:41.933Z,938.39
2023-01-01T08:56:41.936Z,939.28
2023-01-01T08:57:41.993Z,939.79
2023-01-01T08:58:41.937Z,940.96
2023-01-01T08:59:44.925Z,941.4
2023-01-01T09:00:41.982Z,942.1
2023-01-01T09:01:42.040Z,942.2
2023-01-01T09:02:42.063Z,942.9
2023-01-01T09:03:41.952Z,943.14
2023-01-01T09:04:41.948Z,943.42
2023-01-01T09:05:41.956Z,944.4
2023-01-01T09:06:41.947Z,944.5
2023-01-01T09:07:41.957Z,944.73
2023-01-01T09:08:42.026Z,945.11
2023-01-01T09:09:41.981Z,945.33
2023-01-01T09:10:41.954Z,945.83
2023-01-01T09:11:41.961Z,945.65
2023-01-01T09:12:41.961Z,946.27
2023-01-01T09:13:41.966Z,946.27
2023-01-01T09:14:41.965Z,946.68
2023-01-01T09:15:41.970Z,947.72
2023-01-01T09:16:44.148Z,948.07
2023-01-01T09:17:41.964Z,948.27
2023-01-01T09:18:41.964Z,948.15
2023-01-01T09:19:42.028Z,948.61
2023-01-01T09:20:41.967Z,949.37
2023-01-01T09:21:41.972Z,949.81
2023-01-01T09:22:41.982Z,950.37
2023-01-01T09:23:41.993Z,951.16
2023-01-01T09:24:41.988Z,952.07
2023-01-01T09:25:42.002Z,953.04
2023-01-01T09:26:41.988Z,953.99
2023-01-01T09:27:41.996Z,955.09
2023-01-01T09:28:41.981Z,955.88
2023-01-01T09:29:41.994Z,956.91
2023-01-01T09:30:41.989Z,958.2
2023-01-01T09:31:42.041Z,959.23
2023-01-01T09:32:41.989Z,960.58
2023-01-01T09:33:42.022Z,961.78
2023-01-01T09:34:43.992Z,962.9
2023-01-01T09:35:41.992Z,964.39
2023-01-01T09:36:42.001Z,965.52
2023-01-01T09:37:42.003Z,966.78
2023-01-01T09:38:42.005Z,968.55
2023-01-01T09:39:41.997Z,969.82
2023-01-01T09:40:46.133Z,971.27
2023-01-01T09:41:42.029Z,972.84
2023-01-01T09:42:42.003Z,973.95
2023-01-01T09:43:42.018Z,976.03
2023-01-01T09:44:42.009Z,977.23
2023-01-01T09:45:42.061Z,979
2023-01-01T09:46:42.012Z,980.83
2023-01-01T09:47:42.011Z,982.74
2023-01-01T09:48:42.018Z,984.46
2023-01-01T09:49:42.017Z,986.19
2023-01-01T09:50:42.042Z,988.42
2023-01-01T09:51:48.873Z,990.91
2023-01-01T09:52:42.022Z,993.33
2023-01-01T09:53:42.052Z,996.18
2023-01-01T09:54:42.029Z,999.31
2023-01-01T09:55:42.045Z,1002.73
2023-01-01T09:56:42.030Z,1006.38
2023-01-01T09:57:42.068Z,1009.83
2023-01-01T09:58:42.054Z,1013.42
2023-01-01T09:59:42.043Z,1016.84
2023-01-01T10:00:42.077Z,1019.68
2023-01-01T10:01:42.169Z,1022.43
2023-01-01T10:02:42.229Z,1025.22
2023-01-01T10:03:42.117Z,1027.77
2023-01-01T10:04:42.046Z,1030.37
2023-01-01T10:05:42.069Z,1033.2
2023-01-01T10:06:42.052Z,1035.68
2023-01-01T10:07:42.061Z,1037.91
2023-01-01T10:08:42.075Z,1039.99
2023-01-01T10:09:42.051Z,1042.3
2023-01-01T10:10:42.057Z,1044.39
2023-01-01T10:11:42.067Z,1046.09
2023-01-01T10:12:42.065Z,1048.02
2023-01-01T10:13:42.165Z,1049.59
2023-01-01T10:14:42.062Z,1051.35
2023-01-01T10:15:42.067Z,1052.93
2023-01-01T10:16:42.150Z,1054.8
2023-01-01T10:17:42.087Z,1056.04
2023-01-01T10:18:42.089Z,1057.36
2023-01-01T10:19:42.073Z,1058.52
2023-01-01T10:20:42.069Z,1059.65
2023-01-01T10:21:46.618Z,1060.74
2023-01-01T10:22:42.070Z,1061.78
2023-01-01T10:23:42.099Z,1062.81
2023-01-01T10:24:42.073Z,1063.61
2023-01-01T10:25:42.075Z,1064.63
2023-01-01T10:26:42.083Z,1065.28
2023-01-01T10:27:42.078Z,1066.4
2023-01-01T10:28:42.107Z,1067.04
2023-01-01T10:29:42.127Z,1068.01
2023-01-01T10:30:42.107Z,1068.67
2023-01-01T10:31:45.190Z,1069.35
2023-01-01T10:32:42.096Z,1069.91
2023-01-01T10:33:42.121Z,1070.74
2023-01-01T10:34:42.096Z,1071.54
2023-01-01T10:35:42.104Z,1071.89
2023-01-01T10:36:42.103Z,1072.36
2023-01-01T10:37:42.116Z,1072.97
2023-01-01T10:38:42.130Z,1073.63
2023-01-01T10:39:42.105Z,1074.24
2023-01-01T10:40:42.114Z,1074.63
2023-01-01T10:41:42.125Z,1075.35
2023-01-01T10:42:44.978Z,1075.81
2023-01-01T10:43:42.133Z,1076.48
2023-01-01T10:44:42.140Z,1077.15
2023-01-01T10:45:42.170Z,1077.31
2023-01-01T10:46:42.121Z,1077.91
2023-01-01T10:47:42.119Z,1078.39
2023-01-01T10:48:42.145Z,1079.13
2023-01-01T10:49:42.138Z,1079.58
2023-01-01T10:50:42.142Z,1080.16
2023-01-01T10:51:42.126Z,1080.96
2023-01-01T10:52:42.127Z,1081.2
2023-01-01T10:53:45.421Z,1081.91
2023-01-01T10:54:42.132Z,1082.27
2023-01-01T10:55:42.125Z,1082.91
2023-01-01T10:56:42.132Z,1083.55
2023-01-01T10:57:42.134Z,1083.89
2023-01-01T10:58:42.159Z,1084.48
2023-01-01T10:59:42.632Z,1084.94
2023-01-01T11:00:42.159Z,1085.4
2023-01-01T11:01:42.342Z,1085.97
2023-01-01T11:02:42.322Z,1086.57
2023-01-01T11:03:42.139Z,1087.21
2023-01-01T11:04:45.161Z,1087.56
2023-01-01T11:05:42.165Z,1087.87
2023-01-01T11:06:42.144Z,1088.5
2023-01-01T11:07:42.151Z,1088.75
2023-01-01T11:08:42.158Z,1088.78
2023-01-01T11:09:48.020Z,1089.23
2023-01-01T11:10:42.158Z,1089.59
2023-01-01T11:11:42.153Z,1089.87
2023-01-01T11:13:42.155Z,1089.9
2023-01-01T11:14:42.168Z,1089.83
2023-01-01T11:15:45.173Z,1089.76
2023-01-01T11:16:42.196Z,1089.67
2023-01-01T11:17:42.189Z,1089.3
2023-01-01T11:18:42.195Z,1089.11
2023-01-01T11:19:48.660Z,1088.9
2023-01-01T11:20:42.197Z,1088.94
2023-01-01T11:21:43.181Z,1088.74
2023-01-01T11:22:42.190Z,1088.47
2023-01-01T11:23:42.183Z,1088.5
2023-01-01T11:24:42.183Z,1088.37
2023-01-01T11:25:42.175Z,1088.02
2023-01-01T11:26:42.185Z,1087.94
2023-01-01T11:27:42.189Z,1087.62
2023-01-01T11:28:42.206Z,1087.51
2023-01-01T11:29:42.192Z,1087.09
2023-01-01T11:30:42.208Z,1087.06
2023-01-01T11:31:42.187Z,1087.12
2023-01-01T11:32:42.192Z,1087.12
2023-01-01T11:33:42.227Z,1087.3
2023-01-01T11:34:42.198Z,1087.14
2023-01-01T11:35:42.203Z,1087.17
2023-01-01T11:36:42.204Z,1087.02
2023-01-01T11:37:42.202Z,1087.17
2023-01-01T11:38:42.233Z,1087.25
2023-01-01T11:39:42.247Z,1087.59
2023-01-01T11:40:42.203Z,1087.48
2023-01-01T11:41:42.225Z,1087.93
2023-01-01T11:42:42.211Z,1088.44
2023-01-01T11:43:42.224Z,1088.52
2023-01-01T11:44:42.237Z,1089.03
2023-01-01T11:45:42.239Z,1089.43
2023-01-01T11:46:42.223Z,1089.66
2023-01-01T11:47:42.227Z,1090.34
2023-01-01T11:48:42.233Z,1090.79
2023-01-01T11:49:42.251Z,1091.1
2023-01-01T11:50:42.222Z,1091.62
2023-01-01T11:51:42.225Z,1092.06
2023-01-01T11:52:42.252Z,1092.57
2023-01-01T11:53:42.226Z,1093.19
2023-01-01T11:54:42.225Z,1093.39
2023-01-01T11:55:42.270Z,1093.91
2023-01-01T11:56:42.239Z,1094.4
2023-01-01T11:57:42.311Z,1094.8
2023-01-01T11:58:42.241Z,1095.08
2023-01-01T11:59:42.241Z,1095.52
2023-01-01T12:00:42.237Z,1095.6
2023-01-01T12:01:42.255Z,1095.63
2023-01-01T12:02:42.270Z,1095.59
2023-01-01T12:03:42.268Z,1095.87
2023-01-01T12:04:42.277Z,1096.15
2023-01-01T12:05:42.276Z,1096.22
2023-01-01T12:06:42.246Z,1096.47
2023-01-01T12:07:42.253Z,1096.64
2023-01-01T12:08:42.257Z,1096.78
2023-01-01T12:09:42.290Z,1097.05
2023-01-01T12:10:42.307Z,1097.29
2023-01-01T12:11:42.282Z,1097.5
2023-01-01T12:12:42.262Z,1097.84
2023-01-01T12:13:42.261Z,1098.2
2023-01-01T12:14:42.298Z,1098.27
2023-01-01T12:15:42.297Z,1098.52
2023-01-01T12:16:42.262Z,1098.89
2023-01-01T12:17:42.267Z,1098.9
2023-01-01T12:18:42.311Z,1099.14
2023-01-01T12:19:45.040Z,1099.59
2023-01-01T12:20:42.278Z,1099.77
2023-01-01T12:21:45.161Z,1100.09
2023-01-01T12:22:42.273Z,1100.4
2023-01-01T12:23:42.286Z,1100.85
2023-01-01T12:24:42.305Z,1101.23
2023-01-01T12:25:42.290Z,1101.32
2023-01-01T12:26:42.288Z,1101.62
2023-01-01T12:27:42.335Z,1101.83
2023-01-01T12:28:42.293Z,1102.17
2023-01-01T12:29:42.369Z,1102.33
2023-01-01T12:30:42.292Z,1102.65